createdAt,value
2022-09-03T00:02:34.350Z,40.90
2022-09-03T00:05:06.306Z,40.70
2022-09-03T00:07:42.029Z,39.70
2022-09-03T00:10:16.310Z,40.60
2022-09-03T00:12:47.041Z,41.20
2022-09-03T00:15:19.089Z,41.00
2022-09-03T00:17:51.364Z,41.70
2022-09-03T00:20:23.269Z,42.10
2022-09-03T00:22:54.488Z,41.60
2022-09-03T00:25:27.863Z,41.60
2022-09-03T00:27:59.591Z,42.60
2022-09-03T00:30:28.039Z,43.00
2022-09-03T00:32:59.944Z,42.90
2022-09-03T00:35:31.507Z,42.00
2022-09-03T00:38:01.554Z,42.40
2022-09-03T00:40:46.374Z,42.80
2022-09-03T00:43:23.775Z,42.40
2022-09-03T00:46:05.295Z,41.90
2022-09-03T00:48:42.829Z,42.10
2022-09-03T00:51:18.903Z,42.00
2022-09-03T00:53:55.520Z,42.10
2022-09-03T00:56:34.557Z,42.20
2022-09-03T00:59:15.111Z,42.20
2022-09-03T01:01:52.388Z,42.80
2022-09-03T01:04:32.971Z,42.90
2022-09-03T01:07:10.199Z,42.80
2022-09-03T01:09:49.807Z,42.80
2022-09-03T01:12:32.725Z,42.80
2022-09-03T01:15:09.736Z,42.80
2022-09-03T01:17:52.313Z,43.50
2022-09-03T01:20:36.658Z,43.40
2022-09-03T01:23:35.915Z,43.10
2022-09-03T01:26:17.409Z,43.20
2022-09-03T01:28:56.456Z,43.00
2022-09-03T01:31:34.901Z,42.90
2022-09-03T01:34:11.420Z,43.20
2022-09-03T01:36:47.854Z,42.40
2022-09-03T01:39:22.520Z,43.10
2022-09-03T01:42:20.514Z,43.30
2022-09-03T01:45:21.422Z,42.40
2022-09-03T01:48:11.069Z,42.60
2022-09-03T01:50:47.728Z,42.50
2022-09-03T01:53:28.755Z,43.30
2022-09-03T01:56:13.329Z,42.90
2022-09-03T01:58:45.764Z,43.30
2022-09-03T02:01:23.207Z,42.70
2022-09-03T02:03:51.982Z,42.90
2022-09-03T02:06:20.834Z,43.20
2022-09-03T02:08:48.859Z,43.00
2022-09-03T02:11:17.332Z,43.30
2022-09-03T02:13:49.640Z,43.40
2022-09-03T02:16:22.614Z,42.60
2022-09-03T02:18:55.263Z,43.00
2022-09-03T02:21:25.538Z,43.40
2022-09-03T02:23:53.593Z,43.30
2022-09-03T02:26:24.767Z,43.00
2022-09-03T02:28:54.608Z,42.80
2022-09-03T02:31:24.125Z,43.20
2022-09-03T02:33:52.462Z,42.60
2022-09-03T02:36:27.613Z,42.70
2022-09-03T02:38:55.885Z,42.50
2022-09-03T02:44:10.231Z,42.50
2022-09-03T02:46:42.040Z,42.70
2022-09-03T02:49:09.986Z,42.50
2022-09-03T02:51:39.886Z,42.70
2022-09-03T02:54:10.504Z,43.10
2022-09-03T02:56:38.951Z,43.10
2022-09-03T02:59:08.278Z,42.60
2022-09-03T03:01:37.920Z,43.00
2022-09-03T03:04:07.374Z,43.10
2022-09-03T03:06:35.287Z,43.10
2022-09-03T03:09:05.872Z,43.00
2022-09-03T03:11:33.948Z,43.10
2022-09-03T03:14:01.917Z,43.00
2022-09-03T03:16:30.740Z,43.00
2022-09-03T03:18:58.958Z,43.00
2022-09-03T03:21:28.416Z,43.40
2022-09-03T03:23:56.385Z,43.20
2022-09-03T03:26:24.580Z,43.00
2022-09-03T03:28:58.037Z,43.10
2022-09-03T03:31:27.123Z,44.00
2022-09-03T03:33:56.257Z,44.10
2022-09-03T03:36:26.203Z,43.40
2022-09-03T03:38:58.384Z,44.20
2022-09-03T03:41:27.831Z,43.20
2022-09-03T03:43:57.061Z,43.30
2022-09-03T03:46:26.071Z,43.00
2022-09-03T03:48:54.175Z,43.00
2022-09-03T03:51:22.105Z,43.80
2022-09-03T03:53:50.318Z,42.90
2022-09-03T03:56:19.547Z,43.10
2022-09-03T03:58:48.487Z,43.90
2022-09-03T04:01:18.470Z,44.40
2022-09-03T04:03:46.426Z,44.20
2022-09-03T04:06:15.751Z,43.40
2022-09-03T04:08:45.552Z,43.40
2022-09-03T04:11:16.111Z,44.10
2022-09-03T04:13:46.711Z,43.30
2022-09-03T04:16:16.348Z,43.30
2022-09-03T04:18:44.273Z,44.00
2022-09-03T04:21:14.427Z,44.10
2022-09-03T04:23:43.843Z,43.90
2022-09-03T04:26:13.258Z,43.90
2022-09-03T04:28:42.030Z,44.60
2022-09-03T04:31:12.441Z,45.30
2022-09-03T04:33:41.239Z,44.40
2022-09-03T04:36:11.095Z,44.70
2022-09-03T04:38:40.411Z,44.30
2022-09-03T04:41:12.052Z,44.10
2022-09-03T04:43:42.397Z,44.00
2022-09-03T04:46:17.549Z,44.60
2022-09-03T04:48:49.931Z,44.90
2022-09-03T04:51:20.088Z,44.80
2022-09-03T04:53:50.003Z,45.20
2022-09-03T04:56:19.519Z,45.20
2022-09-03T04:58:50.100Z,45.80
2022-09-03T05:01:22.283Z,45.20
2022-09-03T05:03:52.338Z,46.00
2022-09-03T05:06:20.638Z,44.90
2022-09-03T05:08:49.411Z,45.20
2022-09-03T05:11:19.206Z,45.30
2022-09-03T05:13:49.747Z,45.50
2022-09-03T05:16:18.733Z,45.40
2022-09-03T05:18:49.079Z,46.40
2022-09-03T05:21:19.222Z,46.80
2022-09-03T05:23:48.892Z,46.00
2022-09-03T05:26:18.603Z,45.40
2022-09-03T05:28:47.890Z,44.80
2022-09-03T05:31:17.737Z,44.70
2022-09-03T05:33:48.500Z,45.70
2022-09-03T05:36:18.939Z,42.90
2022-09-03T05:38:48.580Z,41.30
2022-09-03T05:41:18.878Z,40.40
2022-09-03T05:43:53.532Z,39.40
2022-09-03T05:46:21.755Z,37.70
2022-09-03T05:48:51.106Z,37.40
2022-09-03T05:51:19.915Z,36.30
2022-09-03T05:53:50.000Z,35.50
2022-09-03T05:56:19.637Z,34.90
2022-09-03T05:58:49.232Z,33.50
2022-09-03T06:01:19.954Z,34.50
2022-09-03T06:03:54.769Z,34.40
2022-09-03T06:06:25.622Z,35.10
2022-09-03T06:08:53.550Z,35.50
2022-09-03T06:11:23.444Z,36.10
2022-09-03T06:13:51.419Z,36.70
2022-09-03T06:16:19.348Z,36.60
2022-09-03T06:19:00.760Z,36.50
2022-09-03T06:21:29.179Z,36.50
2022-09-03T06:24:00.069Z,36.50
2022-09-03T06:26:29.703Z,37.00
2022-09-03T06:28:58.452Z,36.90
2022-09-03T06:31:26.723Z,37.00
2022-09-03T06:33:58.591Z,37.40
2022-09-03T06:36:30.243Z,37.00
2022-09-03T06:38:58.521Z,37.10
2022-09-03T06:41:29.286Z,37.50
2022-09-03T06:44:03.187Z,37.00
2022-09-03T06:46:32.815Z,37.20
2022-09-03T06:49:22.003Z,36.80
2022-09-03T06:51:51.367Z,37.00
2022-09-03T06:54:19.226Z,37.00
2022-09-03T06:56:47.117Z,37.60
2022-09-03T06:59:16.003Z,37.30
2022-09-03T07:01:46.253Z,37.60
2022-09-03T07:04:16.625Z,37.30
2022-09-03T07:06:45.280Z,36.80
2022-09-03T07:09:15.507Z,36.90
2022-09-03T07:11:48.068Z,36.80
2022-09-03T07:14:17.957Z,36.80
2022-09-03T07:16:46.257Z,36.90
2022-09-03T07:19:14.774Z,36.90
2022-09-03T07:21:48.359Z,36.90
2022-09-03T07:24:19.829Z,37.00
2022-09-03T07:26:48.837Z,37.10
2022-09-03T07:29:20.207Z,36.90
2022-09-03T07:31:51.467Z,36.60
2022-09-03T07:34:22.262Z,35.90
2022-09-03T07:36:51.263Z,36.40
2022-09-03T07:39:21.153Z,36.20
2022-09-03T07:41:50.689Z,36.20
2022-09-03T07:44:20.321Z,35.80
2022-09-03T07:46:51.077Z,35.80
2022-09-03T07:49:20.168Z,35.90
2022-09-03T07:51:50.690Z,34.90
2022-09-03T07:54:21.548Z,35.70
2022-09-03T07:56:49.572Z,34.80
2022-09-03T07:59:17.456Z,35.60
2022-09-03T08:01:45.434Z,34.20
2022-09-03T08:04:13.498Z,35.00
2022-09-03T08:06:42.251Z,34.90
2022-09-03T08:09:13.642Z,34.60
2022-09-03T08:11:44.603Z,34.00
2022-09-03T08:14:14.097Z,34.40
2022-09-03T08:16:44.349Z,33.50
2022-09-03T08:19:13.484Z,34.10
2022-09-03T08:21:42.602Z,33.80
2022-09-03T08:24:11.558Z,33.70
2022-09-03T08:26:41.926Z,32.90
2022-09-03T08:29:11.299Z,33.10
2022-09-03T08:31:39.283Z,32.80
2022-09-03T08:34:08.534Z,33.10
2022-09-03T08:36:38.128Z,33.30
2022-09-03T08:39:10.002Z,33.80
2022-09-03T08:41:52.543Z,33.50
2022-09-03T08:44:26.808Z,33.80
2022-09-03T08:46:59.188Z,33.70
2022-09-03T08:49:32.349Z,34.10
2022-09-03T08:52:04.562Z,34.60
2022-09-03T08:54:33.879Z,34.50
2022-09-03T08:57:04.192Z,34.30
2022-09-03T08:59:33.556Z,34.00
2022-09-03T09:02:13.307Z,34.60
2022-09-03T09:04:52.115Z,33.60
2022-09-03T09:07:25.502Z,33.90
2022-09-03T09:10:01.570Z,34.20
2022-09-03T09:12:45.713Z,34.40
2022-09-03T09:15:27.747Z,33.90
2022-09-03T09:18:05.051Z,33.80
2022-09-03T09:20:41.666Z,34.10
2022-09-03T09:23:14.478Z,34.00
2022-09-03T09:25:49.137Z,33.20
2022-09-03T09:28:20.691Z,33.50
2022-09-03T09:30:52.247Z,33.30
2022-09-03T09:33:21.264Z,33.70
2022-09-03T09:35:50.436Z,33.30
2022-09-03T09:38:29.512Z,33.20
2022-09-03T09:40:59.879Z,32.70
2022-09-03T09:43:27.863Z,33.10
2022-09-03T09:46:09.420Z,33.30
2022-09-03T09:48:42.657Z,32.90
2022-09-03T09:51:12.217Z,33.60
2022-09-03T09:53:40.554Z,32.10
2022-09-03T09:56:09.120Z,32.20
2022-09-03T09:58:37.427Z,32.50
2022-09-03T10:01:13.516Z,31.90
2022-09-03T10:03:50.028Z,31.40
2022-09-03T10:06:35.770Z,30.90
2022-09-03T10:09:11.644Z,29.30
2022-09-03T10:11:41.569Z,29.60
2022-09-03T10:14:14.945Z,28.20
2022-09-03T10:16:49.167Z,28.50
2022-09-03T10:19:19.471Z,28.30
2022-09-03T10:21:55.805Z,28.00
2022-09-03T10:24:42.847Z,27.90
2022-09-03T10:27:15.737Z,26.30
2022-09-03T10:29:43.835Z,26.70
2022-09-03T10:32:37.911Z,26.30
2022-09-03T10:35:20.889Z,27.10
2022-09-03T10:37:56.335Z,27.60
2022-09-03T10:40:34.570Z,27.80
2022-09-03T10:43:17.958Z,27.40
2022-09-03T10:45:58.046Z,28.10
2022-09-03T10:48:49.999Z,28.10
2022-09-03T10:51:21.477Z,28.50
2022-09-03T10:54:03.518Z,29.10
2022-09-03T10:56:39.778Z,28.70
2022-09-03T10:59:19.277Z,29.70
2022-09-03T11:01:53.750Z,29.20
2022-09-03T11:04:36.356Z,29.40
2022-09-03T11:07:09.755Z,29.80
2022-09-03T11:09:40.997Z,29.80
2022-09-03T11:12:15.122Z,29.80
2022-09-03T11:14:48.191Z,30.10
2022-09-03T11:17:23.089Z,29.60
2022-09-03T11:20:00.430Z,32.90
2022-09-03T11:22:29.765Z,31.70
2022-09-03T11:25:01.236Z,33.40
2022-09-03T11:27:46.727Z,32.50
2022-09-03T11:30:23.302Z,31.70
2022-09-03T11:32:55.887Z,30.60
2022-09-03T11:35:31.235Z,31.00
2022-09-03T11:38:01.209Z,30.90
2022-09-03T11:40:35.349Z,30.10
2022-09-03T11:43:08.671Z,30.50
2022-09-03T11:45:39.203Z,30.00
2022-09-03T11:48:38.158Z,29.20
2022-09-03T11:51:19.447Z,29.10
2022-09-03T11:53:56.573Z,30.60
2022-09-03T11:56:24.640Z,30.50
2022-09-03T11:59:18.167Z,30.60
2022-09-03T12:01:52.450Z,32.00
2022-09-03T12:04:23.610Z,33.30
2022-09-03T12:07:09.867Z,31.50
2022-09-03T12:10:01.559Z,31.80
2022-09-03T12:12:46.773Z,31.50
2022-09-03T12:15:29.645Z,32.00
2022-09-03T12:18:18.142Z,33.20
2022-09-03T12:20:46.876Z,32.30
2022-09-03T12:23:28.244Z,34.80
2022-09-03T12:25:56.289Z,35.10
2022-09-03T12:28:26.103Z,35.80
2022-09-03T12:30:54.737Z,36.80
2022-09-03T12:33:23.959Z,40.40
2022-09-03T12:35:59.394Z,41.00
2022-09-03T12:38:40.523Z,42.90
2022-09-03T12:41:28.247Z,43.60
2022-09-03T12:43:58.868Z,44.50
2022-09-03T12:46:33.445Z,46.30
2022-09-03T12:52:04.619Z,49.10
2022-09-03T12:54:35.854Z,49.40
2022-09-03T12:57:04.865Z,51.20
2022-09-03T12:59:38.978Z,51.40
2022-09-03T13:02:18.117Z,51.50
2022-09-03T13:04:48.000Z,50.20
2022-09-03T13:07:25.054Z,49.70
2022-09-03T13:10:04.332Z,49.70
2022-09-03T13:12:35.230Z,48.40
2022-09-03T13:15:11.750Z,48.30
2022-09-03T13:17:55.799Z,49.00
2022-09-03T13:20:34.206Z,46.90
2022-09-03T13:23:13.990Z,46.90
2022-09-03T13:25:53.558Z,47.30
2022-09-03T13:28:35.517Z,45.80
2022-09-03T13:31:09.929Z,45.60
2022-09-03T13:33:43.042Z,44.60
2022-09-03T13:36:15.927Z,44.50
2022-09-03T13:38:51.290Z,44.00
2022-09-03T13:41:34.701Z,43.60
2022-09-03T13:44:09.951Z,42.50
2022-09-03T13:46:45.548Z,43.00
2022-09-03T13:49:46.226Z,41.50
2022-09-03T13:52:22.427Z,41.50
2022-09-03T13:54:55.112Z,41.50
2022-09-03T13:57:33.830Z,42.50
2022-09-03T14:00:08.112Z,41.50
2022-09-03T14:02:51.232Z,41.30
2022-09-03T14:05:33.062Z,40.40
2022-09-03T14:08:09.219Z,40.50
2022-09-03T14:10:53.330Z,40.00
2022-09-03T14:13:33.231Z,38.60
2022-09-03T14:16:08.184Z,38.50
2022-09-03T14:18:51.472Z,37.40
2022-09-03T14:21:24.679Z,35.30
2022-09-03T14:24:00.514Z,35.60
2022-09-03T14:26:39.124Z,34.10
2022-09-03T14:29:17.227Z,33.00
2022-09-03T14:32:20.126Z,33.00
2022-09-03T14:35:01.292Z,33.60
2022-09-03T14:37:48.867Z,32.80
2022-09-03T14:40:20.361Z,34.30
2022-09-03T14:43:16.804Z,34.40
2022-09-03T14:46:06.261Z,34.70
2022-09-03T14:48:52.262Z,35.80
2022-09-03T14:51:31.330Z,34.70
2022-09-03T14:54:32.012Z,35.30
2022-09-03T14:57:15.459Z,34.70
2022-09-03T14:59:59.627Z,35.00
2022-09-03T15:03:18.667Z,34.20
2022-09-03T15:06:15.680Z,33.00
2022-09-03T15:08:56.411Z,32.50
2022-09-03T15:11:27.633Z,32.40
2022-09-03T15:14:05.085Z,33.90
2022-09-03T15:16:44.574Z,34.30
2022-09-03T15:19:27.504Z,34.30
2022-09-03T15:22:14.322Z,34.20
2022-09-03T15:24:52.828Z,33.70
2022-09-03T15:27:42.579Z,33.50
2022-09-03T15:30:12.236Z,33.80
2022-09-03T15:32:58.912Z,32.90
2022-09-03T15:35:52.140Z,34.10
2022-09-03T15:38:34.816Z,33.80
2022-09-03T15:41:07.530Z,34.30
2022-09-03T15:43:36.372Z,36.00
2022-09-03T15:46:12.089Z,35.80
2022-09-03T15:48:48.646Z,36.20
2022-09-03T15:51:21.433Z,36.50
2022-09-03T15:53:58.822Z,36.10
2022-09-03T15:56:31.947Z,35.90
2022-09-03T15:59:04.678Z,36.00
2022-09-03T16:01:47.612Z,36.50
2022-09-03T16:04:34.902Z,36.50
2022-09-03T16:07:09.105Z,36.70
2022-09-03T16:10:20.337Z,35.60
2022-09-03T16:12:46.752Z,36.00
2022-09-03T16:15:19.817Z,36.00
2022-09-03T16:17:56.390Z,35.10
2022-09-03T16:20:28.998Z,35.10
2022-09-03T16:23:02.905Z,35.00
2022-09-03T16:25:35.586Z,35.20
2022-09-03T16:28:14.732Z,35.20
2022-09-03T16:30:53.411Z,34.90
2022-09-03T16:33:34.825Z,35.40
2022-09-03T16:36:13.837Z,35.00
2022-09-03T16:38:49.448Z,35.40
2022-09-03T16:41:29.116Z,35.20
2022-09-03T16:44:06.619Z,35.80
2022-09-03T16:46:41.883Z,35.80
2022-09-03T16:49:37.846Z,35.00
2022-09-03T16:52:15.923Z,35.00
2022-09-03T16:54:57.252Z,35.60
2022-09-03T16:57:35.486Z,35.00
2022-09-03T17:00:10.094Z,34.80
2022-09-03T17:03:26.157Z,34.70
2022-09-03T17:06:22.684Z,35.20
2022-09-03T17:09:01.209Z,35.50
2022-09-03T17:11:44.003Z,35.10
2022-09-03T17:14:50.704Z,35.30
2022-09-03T17:17:33.585Z,35.70
2022-09-03T17:20:09.226Z,36.00
2022-09-03T17:22:47.655Z,35.80
2022-09-03T17:25:25.605Z,35.90
2022-09-03T17:28:07.579Z,36.20
2022-09-03T17:30:42.622Z,35.70
2022-09-03T17:33:36.367Z,36.20
2022-09-03T17:36:12.089Z,36.00
2022-09-03T17:39:07.376Z,35.90
2022-09-03T17:41:43.867Z,36.40
2022-09-03T17:44:20.696Z,36.60
2022-09-03T17:46:58.380Z,36.80
2022-09-03T17:49:30.591Z,37.00
2022-09-03T17:52:05.191Z,37.70
2022-09-03T17:54:44.319Z,38.80
2022-09-03T17:57:19.980Z,39.00
2022-09-03T17:59:57.095Z,40.00
2022-09-03T18:02:35.868Z,39.80
2022-09-03T18:05:18.070Z,39.80
2022-09-03T18:07:52.127Z,40.10
2022-09-03T18:10:28.501Z,41.40
2022-09-03T18:13:05.908Z,42.50
2022-09-03T18:15:39.315Z,41.90
2022-09-03T18:18:12.618Z,40.90
2022-09-03T18:21:24.038Z,41.50
2022-09-03T18:24:19.879Z,41.80
2022-09-03T18:27:11.863Z,42.50
2022-09-03T18:30:05.555Z,42.80
2022-09-03T18:32:51.311Z,43.50
2022-09-03T18:35:37.456Z,43.20
2022-09-03T18:38:24.247Z,43.20
2022-09-03T18:41:21.348Z,43.40
2022-09-03T18:44:16.208Z,43.90
2022-09-03T18:50:22.593Z,44.60
2022-09-03T18:53:13.559Z,44.90
2022-09-03T18:56:13.952Z,44.90
2022-09-03T18:59:16.600Z,45.80
2022-09-03T19:02:02.723Z,45.70
2022-09-03T19:05:00.961Z,45.30
2022-09-03T19:08:00.098Z,45.50
2022-09-03T19:10:52.583Z,45.30
2022-09-03T19:13:53.388Z,45.20
2022-09-03T19:16:50.732Z,44.80
2022-09-03T19:19:53.784Z,45.40
2022-09-03T19:22:47.209Z,46.00
2022-09-03T19:25:34.291Z,44.60
2022-09-03T19:28:31.195Z,44.50
2022-09-03T19:31:32.638Z,46.30
2022-09-03T19:34:25.776Z,45.80
2022-09-03T19:37:20.519Z,46.20
2022-09-03T19:40:23.166Z,46.90
2022-09-03T19:43:17.042Z,47.70
2022-09-03T19:46:12.114Z,47.00
2022-09-03T19:49:13.285Z,46.80
2022-09-03T19:52:04.348Z,47.30
2022-09-03T19:54:51.746Z,47.00
2022-09-03T19:57:39.027Z,46.90
2022-09-03T20:00:32.510Z,47.30
2022-09-03T20:03:20.548Z,47.20
2022-09-03T20:06:11.247Z,47.90
2022-09-03T20:08:57.659Z,48.40
2022-09-03T20:11:29.646Z,48.40
2022-09-03T20:14:16.568Z,48.60
2022-09-03T20:17:02.584Z,48.60
2022-09-03T20:19:39.489Z,48.50
2022-09-03T20:22:22.737Z,48.40
2022-09-03T20:25:08.657Z,48.70
2022-09-03T20:27:51.471Z,49.00
2022-09-03T20:30:21.541Z,48.90
2022-09-03T20:33:03.707Z,48.80
2022-09-03T20:35:42.312Z,49.00
2022-09-03T20:38:31.026Z,48.70
2022-09-03T20:41:12.266Z,49.00
2022-09-03T20:43:59.314Z,48.80
2022-09-03T20:46:41.754Z,48.70
2022-09-03T20:49:20.294Z,49.60
2022-09-03T20:51:56.423Z,49.00
2022-09-03T20:54:32.116Z,49.00
2022-09-03T20:57:38.103Z,49.20
2022-09-03T21:00:13.210Z,49.10
2022-09-03T21:03:01.852Z,48.90
2022-09-03T21:05:35.452Z,49.40
2022-09-03T21:08:17.304Z,49.90
2022-09-03T21:10:53.467Z,50.10
2022-09-03T21:13:38.354Z,50.70
2022-09-03T21:16:21.818Z,51.20
2022-09-03T21:19:00.499Z,50.50
2022-09-03T21:21:40.487Z,50.10
2022-09-03T21:24:15.445Z,50.70
2022-09-03T21:26:52.143Z,51.20
2022-09-03T21:29:27.177Z,50.60
2022-09-03T21:32:03.707Z,51.20
2022-09-03T21:34:38.802Z,52.20
2022-09-03T21:37:11.552Z,52.10
2022-09-03T21:39:45.954Z,51.80
2022-09-03T21:42:25.773Z,51.80
2022-09-03T21:45:00.554Z,51.40
2022-09-03T21:47:33.425Z,51.10
2022-09-03T21:50:15.858Z,50.80
2022-09-03T21:52:53.677Z,50.00
2022-09-03T21:55:29.174Z,50.90
2022-09-03T21:58:12.179Z,51.80
2022-09-03T22:00:41.151Z,52.40
2022-09-03T22:03:10.699Z,52.90
2022-09-03T22:05:51.240Z,51.80
2022-09-03T22:08:25.771Z,52.50
2022-09-03T22:11:02.555Z,52.90
2022-09-03T22:13:39.792Z,52.70
2022-09-03T22:16:15.077Z,52.90
2022-09-03T22:18:44.663Z,51.80
2022-09-03T22:21:19.020Z,51.20
2022-09-03T22:24:07.893Z,50.60
2022-09-03T22:26:47.054Z,51.90
2022-09-03T22:29:29.409Z,52.70
2022-09-03T22:32:05.686Z,53.70
2022-09-03T22:34:47.420Z,53.70
2022-09-03T22:37:26.029Z,53.70
2022-09-03T22:40:01.724Z,53.60
2022-09-03T22:42:43.052Z,53.20
2022-09-03T22:45:28.197Z,52.80
2022-09-03T22:48:07.528Z,53.50
2022-09-03T22:50:44.368Z,53.70
2022-09-03T22:53:23.434Z,54.10
2022-09-03T22:55:59.485Z,54.90
2022-09-03T22:58:34.899Z,54.40
2022-09-03T23:01:10.903Z,53.70
2022-09-03T23:03:43.502Z,54.70
2022-09-03T23:06:16.913Z,54.60
2022-09-03T23:08:53.691Z,54.50
2022-09-03T23:11:27.177Z,53.70
2022-09-03T23:14:02.321Z,54.10
2022-09-03T23:16:38.525Z,53.80
2022-09-03T23:21:52.763Z,53.10
2022-09-03T23:24:29.101Z,53.70
2022-09-03T23:27:01.022Z,54.10
2022-09-03T23:29:36.700Z,54.20
2022-09-03T23:32:09.549Z,54.40
2022-09-03T23:34:41.006Z,53.50
2022-09-03T23:37:33.948Z,54.00
2022-09-03T23:40:39.091Z,54.60
2022-09-03T23:43:43.595Z,55.20
2022-09-03T23:46:19.292Z,55.10
2022-09-03T23:49:17.256Z,55.00
2022-09-03T23:51:58.401Z,55.20
2022-09-03T23:54:36.189Z,54.70
2022-09-03T23:57:12.882Z,55.00
